Time;durP1;ratioP1;P1;durP2;ratioP2;P2;SDS_P1;SDS_P2;PMS_P1;PMS_P2;Temp;Humidity;BMP_temperature;BMP_pressure;BME280_temperature;BME280_humidity;BME280_pressure;Samples;Min_cycle;Max_cycle;Signal;HPM_P1;HPM_P2
2024/04/23 00:00:24;;;;;;;13.32;8.68;;;;;;;-146.25;100.00;52441.19;2180873;27;35379;-67
2024/04/23 00:01:26;;;;;;;14.63;8.98;;;;;;;-146.25;100.00;52491.88;2181848;27;29809;-67
2024/04/23 00:02:30;;;;;;;11.75;8.35;;;;;;;-146.25;100.00;52439.16;2181870;27;30901;-67
2024/04/23 00:03:32;;;;;;;12.30;8.15;;;;;;;-146.25;100.00;52455.38;2181935;27;35574;-67
2024/04/23 00:04:34;;;;;;;12.23;8.82;;;;;;;-146.25;100.00;52437.13;2181854;27;32534;-67
2024/04/23 00:05:36;;;;;;;12.38;8.63;;;;;;;-146.25;100.00;52445.25;2181728;27;33901;-67
2024/04/23 00:06:38;;;;;;;14.30;8.65;;;;;;;-146.25;100.00;52433.06;2181797;27;34357;-67
2024/04/23 00:07:40;;;;;;;11.52;8.68;;;;;;;-146.25;100.00;52477.69;2181670;27;32214;-67
2024/04/23 00:08:44;;;;;;;12.13;8.63;;;;;;;-146.25;100.00;52457.41;2181850;27;36121;-67
2024/04/23 00:09:49;;;;;;;12.38;8.73;;;;;;;-146.25;100.00;52457.41;2181417;27;30426;-67
2024/04/23 00:10:51;;;;;;;10.60;8.38;;;;;;;-146.25;100.00;52453.34;2181809;27;31997;-67
2024/04/23 00:11:53;;;;;;;12.55;9.07;;;;;;;-146.25;100.00;52424.97;2181738;27;29132;-67
2024/04/23 00:12:55;;;;;;;13.90;9.15;;;;;;;-146.25;100.00;52465.53;2181065;27;27693;-67
2024/04/23 00:14:00;;;;;;;11.80;9.13;;;;;;;-146.25;100.00;52441.19;2181000;27;34936;-67
2024/04/23 00:15:02;;;;;;;14.23;9.05;;;;;;;-146.25;100.00;52427.00;2181606;27;33521;-67
2024/04/23 00:16:05;;;;;;;13.95;8.82;;;;;;;-146.25;100.00;52453.34;2181761;27;34063;-67
2024/04/23 00:17:07;;;;;;;12.57;8.77;;;;;;;-146.25;100.00;52461.47;2181690;27;33531;-67
2024/04/23 00:18:08;;;;;;;11.68;8.50;;;;;;;-146.25;100.00;52424.97;2181696;27;31456;-67
2024/04/23 00:19:10;;;;;;;12.60;9.00;;;;;;;-146.25;100.00;52435.09;2181715;27;31916;-68
2024/04/23 00:20:14;;;;;;;13.15;8.82;;;;;;;-146.25;100.00;52412.81;2181540;27;35790;-68
2024/04/23 00:21:16;;;;;;;12.85;8.25;;;;;;;-146.25;100.00;52459.44;2180784;27;35175;-68
2024/04/23 00:22:18;;;;;;;12.70;8.43;;;;;;;-146.25;100.00;52431.06;2181066;27;33656;-68
2024/04/23 00:23:20;;;;;;;11.63;7.95;;;;;;;-146.25;100.00;52459.44;2180678;27;33472;-68
2024/04/23 00:24:22;;;;;;;12.90;8.18;;;;;;;-146.25;100.00;52433.06;2180408;27;33115;-68
2024/04/23 00:25:24;;;;;;;13.60;8.77;;;;;;;-146.25;100.00;52457.41;2181436;27;34752;-66
2024/04/23 00:26:26;;;;;;;12.27;7.90;;;;;;;-146.25;100.00;52435.09;2181634;27;33650;-68
2024/04/23 00:27:28;;;;;;;11.77;8.15;;;;;;;-146.25;100.00;52412.81;2181513;27;34166;-68
2024/04/23 00:28:32;;;;;;;11.27;8.40;;;;;;;-146.25;100.00;52420.91;2181641;27;32131;-68
2024/04/23 00:29:37;;;;;;;14.27;8.98;;;;;;;-146.25;100.00;52429.03;2181295;27;36330;-67
2024/04/23 00:30:38;;;;;;;12.40;8.60;;;;;;;-146.25;100.00;52410.78;2181657;27;31797;-68
2024/04/23 00:31:40;;;;;;;12.23;8.25;;;;;;;-146.25;100.00;52410.78;2181479;27;35018;-68
2024/04/23 00:32:42;;;;;;;11.98;7.72;;;;;;;-146.25;100.00;52469.56;2166585;27;36726;-68
2024/04/23 00:33:44;;;;;;;12.25;8.25;;;;;;;-146.25;100.00;52451.31;2167275;27;30045;-68
2024/04/23 00:34:46;;;;;;;13.32;9.35;;;;;;;-146.25;100.00;52439.16;2181294;27;38743;-66
2024/04/23 00:35:48;;;;;;;12.43;7.97;;;;;;;-146.25;100.00;52469.56;2183126;27;32484;-67
2024/04/23 00:36:57;;;;;;;11.93;8.10;;;;;;;-146.25;100.00;52412.81;2182013;27;33477;-68
2024/04/23 00:37:59;;;;;;;11.48;8.32;;;;;;;-146.25;100.00;52443.22;2181954;27;36863;-68
2024/04/23 00:39:00;;;;;;;11.45;8.35;;;;;;;-146.25;100.00;52463.50;2182326;27;20022;-66
2024/04/23 00:40:03;;;;;;;12.05;8.40;;;;;;;-146.25;100.00;52467.56;2181816;27;35825;-68
2024/04/23 00:41:05;;;;;;;12.82;8.80;;;;;;;-146.25;100.00;52443.22;2183033;27;31214;-69
2024/04/23 00:42:07;;;;;;;12.43;8.13;;;;;;;-146.25;100.00;52410.78;2183360;27;19999;-68
2024/04/23 00:43:08;;;;;;;12.32;8.32;;;;;;;-146.25;100.00;52429.03;2182847;27;33304;-68
2024/04/23 00:44:10;;;;;;;11.82;8.82;;;;;;;-146.25;100.00;52420.91;2183226;27;33549;-67
2024/04/23 00:45:15;;;;;;;14.15;8.68;;;;;;;-146.25;100.00;52453.34;2183097;27;20002;-68
2024/04/23 00:46:24;;;;;;;12.75;8.68;;;;;;;-146.25;100.00;52445.25;2182181;27;28452;-69
2024/04/23 00:47:26;;;;;;;13.60;8.93;;;;;;;-146.25;100.00;52418.88;2184466;27;34497;-68
2024/04/23 00:48:28;;;;;;;13.98;8.43;;;;;;;-146.25;100.00;52451.31;2194783;26;35053;-68
2024/04/23 00:49:30;;;;;;;12.13;8.10;;;;;;;-146.25;100.00;52445.25;2182864;27;33500;-68
2024/04/23 00:50:32;;;;;;;13.38;8.85;;;;;;;-146.25;100.00;52429.03;2182636;27;36226;-68
2024/04/23 00:51:35;;;;;;;11.60;8.23;;;;;;;-146.25;100.00;52467.56;2182862;27;35885;-68
2024/04/23 00:52:39;;;;;;;13.00;8.95;;;;;;;-146.25;100.00;52429.03;2181852;27;34187;-68
2024/04/23 00:53:41;;;;;;;14.23;9.02;;;;;;;-146.25;100.00;52422.94;2183078;27;36226;-68
2024/04/23 00:54:43;;;;;;;14.25;9.20;;;;;;;-146.25;100.00;52435.09;2195479;26;32865;-68
2024/04/23 00:55:45;;;;;;;13.77;8.90;;;;;;;-146.25;100.00;52422.94;2182626;27;34629;-68
2024/04/23 00:56:47;;;;;;;12.23;8.40;;;;;;;-146.25;100.00;52439.16;2182791;27;34615;-68
2024/04/23 00:57:49;;;;;;;13.18;9.00;;;;;;;-146.25;100.00;52453.34;2181995;27;35572;-67
2024/04/23 00:58:52;;;;;;;15.05;9.02;;;;;;;-146.25;100.00;52437.13;2181830;27;33806;-68
2024/04/23 00:59:54;;;;;;;12.73;8.50;;;;;;;-146.25;100.00;52427.00;2182690;27;32967;-68
2024/04/23 01:00:56;;;;;;;9.88;7.47;;;;;;;-146.25;100.00;52412.81;2183119;27;20896;-68
2024/04/23 01:01:59;;;;;;;14.93;9.23;;;;;;;-146.25;100.00;52414.84;2181883;27;37464;-68
2024/04/23 01:03:01;;;;;;;12.93;8.68;;;;;;;-146.25;100.00;52422.94;2181985;27;31693;-67
2024/04/23 01:04:05;;;;;;;11.98;8.35;;;;;;;-146.25;100.00;52473.63;2182003;27;34568;-68
2024/04/23 01:05:07;;;;;;;12.70;8.10;;;;;;;-146.25;100.00;52451.31;2181918;27;30891;-68
2024/04/23 01:06:09;;;;;;;10.27;7.85;;;;;;;-146.25;100.00;52443.22;2182420;27;31107;-68
2024/04/23 01:07:11;;;;;;;11.13;7.25;;;;;;;-146.25;100.00;52414.84;2181731;27;37575;-67
2024/04/23 01:08:13;;;;;;;11.10;8.10;;;;;;;-146.25;100.00;52422.94;2182802;27;30980;-68
2024/04/23 01:09:19;;;;;;;10.57;7.75;;;;;;;-146.25;100.00;52457.41;2182013;27;20006;-67
2024/04/23 01:10:23;;;;;;;11.57;7.95;;;;;;;-146.25;100.00;52453.34;2184116;27;30027;-68
2024/04/23 01:11:26;;;;;;;12.60;8.00;;;;;;;-146.25;100.00;52475.66;2181778;27;35484;-67
2024/04/23 01:12:28;;;;;;;11.82;7.82;;;;;;;-146.25;100.00;52406.72;2168357;27;36162;-67
2024/04/23 01:13:29;;;;;;;10.63;7.78;;;;;;;-146.25;100.00;52453.34;2181760;27;35019;-67
2024/04/23 01:14:34;;;;;;;9.45;7.07;;;;;;;-146.25;100.00;52422.94;2181869;27;32956;-68
2024/04/23 01:15:37;;;;;;;12.93;7.78;;;;;;;-146.25;100.00;52441.19;2182367;27;36580;-67
2024/04/23 01:16:43;;;;;;;11.13;7.70;;;;;;;-146.25;100.00;52427.00;2168089;27;30801;-68
2024/04/23 01:17:50;;;;;;;11.30;7.90;;;;;;;-146.25;100.00;52410.78;2169285;27;37367;-67
2024/04/23 01:18:58;;;;;;;11.88;8.32;;;;;;;-146.25;100.00;52469.56;2170575;27;33121;-67
2024/04/23 01:20:05;;;;;;;11.57;8.23;;;;;;;-146.25;100.00;52451.31;2181778;27;35938;-67
2024/04/23 01:21:10;;;;;;;13.10;7.78;;;;;;;-146.25;100.00;52418.88;2183591;27;20015;-68
2024/04/23 01:22:43;;;;;;;10.45;7.68;;;;;;;-146.25;100.00;52449.31;2182343;27;20007;-67
2024/04/23 01:23:56;;;;;;;10.75;7.70;;;;;;;-146.25;100.00;52429.03;2175709;27;38114;-67
2024/04/23 01:25:22;;;;;;;11.98;7.78;;;;;;;-146.25;100.00;52414.84;2179341;27;20018;-67
2024/04/23 01:26:25;;;;;;;10.88;7.43;;;;;;;-146.25;100.00;52469.56;2195748;26;34351;-68
2024/04/23 01:27:28;;;;;;;10.93;8.00;;;;;;;-146.25;100.00;52441.19;2190717;27;34509;-67
2024/04/23 01:28:30;;;;;;;13.45;8.82;;;;;;;-146.25;100.00;52420.91;2180879;27;31840;-68
2024/04/23 01:29:33;;;;;;;11.77;8.65;;;;;;;-146.25;100.00;52457.41;2182267;27;35504;-68
2024/04/23 01:30:36;;;;;;;14.68;9.48;;;;;;;-146.25;100.00;52420.91;2181962;27;33870;-67
2024/04/23 01:31:39;;;;;;;15.60;8.60;;;;;;;-146.25;100.00;52453.34;2182076;27;33483;-67
2024/04/23 01:32:43;;;;;;;12.88;8.95;;;;;;;-146.25;100.00;52457.41;2182451;27;35846;-67
2024/04/23 01:33:47;;;;;;;10.88;8.23;;;;;;;-146.25;100.00;52424.97;2182112;27;31991;-68
2024/04/23 01:34:50;;;;;;;13.68;8.55;;;;;;;-146.25;100.00;52461.47;2182988;27;30273;-66
2024/04/23 01:35:52;;;;;;;13.45;8.13;;;;;;;-146.25;100.00;52429.03;2182047;27;33369;-68
2024/04/23 01:36:55;;;;;;;13.98;8.77;;;;;;;-146.25;100.00;52441.19;2182406;27;31285;-67
2024/04/23 01:38:00;;;;;;;13.90;8.75;;;;;;;-146.25;100.00;52469.56;2196480;27;20111;-68
2024/04/23 01:39:02;;;;;;;13.50;9.05;;;;;;;-146.25;100.00;52427.00;2167435;27;37913;-68
2024/04/23 01:40:05;;;;;;;14.35;8.50;;;;;;;-146.25;100.00;52461.47;2169491;27;20012;-68
2024/04/23 01:41:07;;;;;;;12.98;8.10;;;;;;;-146.25;100.00;52441.19;2154537;27;34643;-68
2024/04/23 01:42:09;;;;;;;13.30;8.88;;;;;;;-146.25;100.00;52427.00;2168669;27;30148;-67
2024/04/23 01:43:13;;;;;;;14.18;9.38;;;;;;;-146.25;100.00;52437.13;2182451;27;32894;-67
2024/04/23 01:44:15;;;;;;;13.35;9.30;;;;;;;-146.25;100.00;52467.56;2182054;27;32173;-67
2024/04/23 01:45:19;;;;;;;14.32;9.40;;;;;;;-146.25;100.00;52473.63;2166660;27;35141;-68
2024/04/23 01:46:22;;;;;;;13.70;8.98;;;;;;;-146.25;100.00;52465.53;2182237;27;33735;-68
2024/04/23 01:47:24;;;;;;;11.50;8.18;;;;;;;-146.25;100.00;52473.63;2194212;27;36525;-67
2024/04/23 01:48:26;;;;;;;14.13;8.68;;;;;;;-146.25;100.00;52473.63;2182735;27;34879;-68
2024/04/23 01:49:28;;;;;;;12.13;9.20;;;;;;;-146.25;100.00;52422.94;2182396;27;35031;-68
2024/04/23 01:50:30;;;;;;;15.75;9.43;;;;;;;-146.25;100.00;52412.81;2182612;27;34676;-67
2024/04/23 01:51:32;;;;;;;13.73;8.27;;;;;;;-146.25;100.00;52431.06;2182279;27;33521;-68
2024/04/23 01:52:34;;;;;;;14.60;8.70;;;;;;;-146.25;100.00;52441.19;2183046;27;35066;-66
2024/04/23 01:53:36;;;;;;;13.00;8.63;;;;;;;-146.25;100.00;52429.03;2182319;27;33777;-66
2024/04/23 01:54:39;;;;;;;10.98;7.80;;;;;;;-146.25;100.00;52443.22;2182554;27;32138;-66
2024/04/23 01:55:41;;;;;;;13.02;8.70;;;;;;;-146.25;100.00;52475.66;2182816;27;35046;-66
2024/04/23 01:56:43;;;;;;;14.55;9.15;;;;;;;-146.25;100.00;52455.38;2181919;27;34397;-66
2024/04/23 01:57:45;;;;;;;12.70;8.40;;;;;;;-146.25;100.00;52441.19;2167913;27;33990;-67
2024/04/23 01:58:47;;;;;;;12.48;8.50;;;;;;;-146.25;100.00;52429.03;2181705;27;35882;-66
2024/04/23 01:59:56;;;;;;;13.82;8.98;;;;;;;-146.25;100.00;52427.00;2182260;27;34058;-68
2024/04/23 02:01:00;;;;;;;11.32;7.72;;;;;;;-146.25;100.00;52433.06;2182126;27;25011;-66
2024/04/23 02:02:07;;;;;;;12.95;8.73;;;;;;;-146.25;100.00;52416.84;2182089;27;20011;-66
2024/04/23 02:03:10;;;;;;;13.57;9.20;;;;;;;-146.25;100.00;52437.13;2181830;27;34471;-65
2024/04/23 02:04:13;;;;;;;12.27;8.15;;;;;;;-146.25;100.00;52420.91;2154410;27;20051;-66
2024/04/23 02:05:17;;;;;;;13.38;8.23;;;;;;;-146.25;100.00;52412.81;2155482;27;34757;-66
2024/04/23 02:06:20;;;;;;;13.30;8.90;;;;;;;-146.25;100.00;52451.31;2181428;27;36769;-66
2024/04/23 02:07:22;;;;;;;14.98;9.48;;;;;;;-146.25;100.00;52457.41;2169254;27;21158;-66
2024/04/23 02:08:24;;;;;;;14.13;9.60;;;;;;;-146.25;100.00;52455.38;2168306;27;30130;-66
2024/04/23 02:09:26;;;;;;;13.18;9.15;;;;;;;-146.25;100.00;52467.56;2181322;27;34129;-66
2024/04/23 02:10:28;;;;;;;11.90;8.65;;;;;;;-146.25;100.00;52408.75;2181711;27;31115;-66
2024/04/23 02:11:33;;;;;;;13.68;9.82;;;;;;;-146.25;100.00;52461.47;2168465;27;37373;-67
2024/04/23 02:12:38;;;;;;;12.05;8.90;;;;;;;-146.25;100.00;52424.97;2168611;27;33954;-66
2024/04/23 02:13:40;;;;;;;16.20;9.25;;;;;;;-146.25;100.00;52412.81;2168299;27;36556;-66
2024/04/23 02:14:42;;;;;;;12.38;8.15;;;;;;;-146.25;100.00;52402.66;2182462;27;20101;-66
2024/04/23 02:15:44;;;;;;;13.85;8.48;;;;;;;-146.25;100.00;52427.00;2181499;27;33849;-66
2024/04/23 02:16:46;;;;;;;13.02;8.50;;;;;;;-146.25;100.00;52447.28;2182138;27;20133;-67
2024/04/23 02:17:48;;;;;;;12.73;9.00;;;;;;;-146.25;100.00;52414.84;2182508;27;35775;-65
2024/04/23 02:18:50;;;;;;;13.55;9.25;;;;;;;-146.25;100.00;52408.75;2182348;27;33441;-68
2024/04/23 02:19:57;;;;;;;15.77;8.85;;;;;;;-146.25;100.00;52441.19;2181703;27;31667;-68
2024/04/23 02:20:59;;;;;;;12.10;8.43;;;;;;;-146.25;100.00;52424.97;2181628;27;36069;-68
2024/04/23 02:22:01;;;;;;;13.70;8.25;;;;;;;-146.25;100.00;52459.44;2183210;27;20135;-68
2024/04/23 02:23:03;;;;;;;14.40;8.82;;;;;;;-146.25;100.00;52439.16;2182154;27;33216;-67
2024/04/23 02:24:04;;;;;;;13.95;8.82;;;;;;;-146.25;100.00;52451.31;2183237;27;20006;-67
2024/04/23 02:25:06;;;;;;;13.63;8.32;;;;;;;-146.25;100.00;52447.28;2181800;27;36841;-68
2024/04/23 02:26:08;;;;;;;11.55;7.60;;;;;;;-146.25;100.00;52412.81;2182705;27;33167;-67
2024/04/23 02:27:10;;;;;;;13.48;8.80;;;;;;;-146.25;100.00;52439.16;2182304;27;33286;-67
2024/04/23 02:28:12;;;;;;;11.38;7.95;;;;;;;-146.25;100.00;52424.97;2182497;27;36629;-67
2024/04/23 02:29:14;;;;;;;12.40;8.02;;;;;;;-146.25;100.00;52465.53;2182869;27;21102;-67
2024/04/23 02:30:16;;;;;;;12.32;7.50;;;;;;;-146.25;100.00;52429.03;2182473;27;35115;-68
2024/04/23 02:31:20;;;;;;;12.15;8.15;;;;;;;-146.25;100.00;52437.13;2182224;27;37053;-67
2024/04/23 02:32:24;;;;;;;11.98;7.70;;;;;;;-146.25;100.00;52445.25;2182591;27;33423;-68
2024/04/23 02:33:28;;;;;;;10.52;7.53;;;;;;;-146.25;100.00;52461.47;2182177;27;34600;-68
2024/04/23 02:34:30;;;;;;;11.82;7.90;;;;;;;-146.25;100.00;52420.91;2183213;27;20025;-67
2024/04/23 02:35:32;;;;;;;11.55;8.23;;;;;;;-146.25;100.00;52433.06;2182001;27;37764;-67
2024/04/23 02:36:37;;;;;;;12.73;8.75;;;;;;;-146.25;100.00;52461.47;2182262;27;32808;-66
2024/04/23 02:37:39;;;;;;;12.75;8.68;;;;;;;-146.25;100.00;52447.28;2183242;27;20024;-68
2024/04/23 02:38:41;;;;;;;10.80;8.07;;;;;;;-146.25;100.00;52467.56;2182137;27;35475;-65
2024/04/23 02:39:43;;;;;;;11.38;7.90;;;;;;;-146.25;100.00;52447.28;2181634;27;37628;-66
2024/04/23 02:40:45;;;;;;;12.05;8.25;;;;;;;-146.25;100.00;52416.84;2189611;26;20025;-66
2024/04/23 02:41:52;;;;;;;14.65;8.32;;;;;;;-146.25;100.00;52441.19;2196164;26;37009;-66
2024/04/23 02:42:54;;;;;;;11.70;8.35;;;;;;;-146.25;100.00;52416.84;2195372;27;36314;-66
2024/04/23 02:43:56;;;;;;;11.63;7.75;;;;;;;-146.25;100.00;52445.25;2195729;26;29610;-66
2024/04/23 02:44:58;;;;;;;11.40;8.60;;;;;;;-146.25;100.00;52374.28;2195601;26;36110;-66
2024/04/23 02:45:59;;;;;;;13.07;8.02;;;;;;;-146.25;100.00;52469.56;2195698;27;34294;-66
2024/04/23 02:47:01;;;;;;;12.00;8.25;;;;;;;-146.25;100.00;52473.63;2196547;27;35140;-66
2024/04/23 02:48:04;;;;;;;9.68;7.38;;;;;;;-146.25;100.00;52437.13;2197222;26;20021;-67
2024/04/23 02:49:06;;;;;;;11.73;8.23;;;;;;;-146.25;100.00;52471.59;2196647;27;30060;-66
2024/04/23 02:50:08;;;;;;;11.40;7.78;;;;;;;-146.25;100.00;52424.97;2196932;27;20111;-67
2024/04/23 02:51:10;;;;;;;11.52;8.07;;;;;;;-146.25;100.00;52441.19;2196618;26;33346;-65
2024/04/23 02:52:12;;;;;;;12.77;8.02;;;;;;;-146.25;100.00;52455.38;2195902;26;30669;-67
2024/04/23 02:53:14;;;;;;;12.57;8.05;;;;;;;-146.25;100.00;52416.84;2195234;27;31926;-66
2024/04/23 02:54:15;;;;;;;12.80;8.30;;;;;;;-146.25;100.00;52445.25;2194954;27;34259;-66
2024/04/23 02:55:18;;;;;;;12.13;8.48;;;;;;;-146.25;100.00;52433.06;2196243;27;20010;-66
2024/04/23 02:56:20;;;;;;;10.85;8.10;;;;;;;-146.25;100.00;52431.06;2196191;27;33853;-66
2024/04/23 02:57:22;;;;;;;10.73;7.90;;;;;;;-146.25;100.00;52473.63;2197130;27;20077;-66
2024/04/23 02:58:29;;;;;;;12.85;8.18;;;;;;;-146.25;100.00;52461.47;2195002;26;36080;-66
2024/04/23 02:59:30;;;;;;;11.63;7.95;;;;;;;-146.25;100.00;52463.50;2196534;26;33157;-65
2024/04/23 03:00:32;;;;;;;12.80;8.20;;;;;;;-146.25;100.00;52435.09;2196097;27;35444;-66
2024/04/23 03:01:34;;;;;;;12.88;8.88;;;;;;;-146.25;100.00;52441.19;2196505;27;35305;-66
2024/04/23 03:02:36;;;;;;;12.35;7.68;;;;;;;-146.25;100.00;52455.38;2196076;27;20013;-66
2024/04/23 03:03:38;;;;;;;13.35;8.88;;;;;;;-146.25;100.00;52429.03;2195746;26;33726;-66
2024/04/23 03:04:42;;;;;;;14.55;8.55;;;;;;;-146.25;100.00;52437.13;2193422;26;32607;-66
2024/04/23 03:05:44;;;;;;;10.60;7.70;;;;;;;-146.25;100.00;52420.91;2182263;27;33872;-66
2024/04/23 03:06:48;;;;;;;13.77;8.38;;;;;;;-146.25;100.00;52424.97;2181227;27;35636;-66
2024/04/23 03:07:50;;;;;;;13.55;8.85;;;;;;;-146.25;100.00;52429.03;2182135;27;20007;-65
2024/04/23 03:08:52;;;;;;;13.68;8.77;;;;;;;-146.25;100.00;52420.91;2182039;27;36480;-66
2024/04/23 03:09:54;;;;;;;15.15;9.48;;;;;;;-146.25;100.00;52449.31;2182278;27;33783;-66
2024/04/23 03:10:56;;;;;;;12.00;9.43;;;;;;;-146.25;100.00;52481.75;2182413;27;20184;-66
2024/04/23 03:11:58;;;;;;;13.57;8.35;;;;;;;-146.25;100.00;52433.06;2182174;27;35513;-66
2024/04/23 03:13:00;;;;;;;16.08;8.98;;;;;;;-146.25;100.00;52469.56;2181694;27;21143;-66
2024/04/23 03:14:04;;;;;;;13.38;8.52;;;;;;;-146.25;100.00;52445.25;2181432;27;34156;-66
2024/04/23 03:15:07;;;;;;;14.60;9.30;;;;;;;-146.25;100.00;52481.75;2183188;27;20156;-66
2024/04/23 03:16:09;;;;;;;14.48;10.48;;;;;;;-146.25;100.00;52441.19;2181402;27;33016;-65
2024/04/23 03:17:11;;;;;;;13.68;8.63;;;;;;;-146.25;100.00;52437.13;2181031;27;38490;-66
2024/04/23 03:18:13;;;;;;;15.70;8.55;;;;;;;-146.25;100.00;52441.19;2182999;27;20010;-66
2024/04/23 03:19:15;;;;;;;13.40;8.70;;;;;;;-146.25;100.00;52443.22;2181641;27;37021;-66
2024/04/23 03:20:17;;;;;;;13.77;9.10;;;;;;;-146.25;100.00;52437.13;2182994;27;20194;-66
2024/04/23 03:21:19;;;;;;;13.73;8.82;;;;;;;-146.25;100.00;52481.75;2181711;27;31123;-66
2024/04/23 03:22:21;;;;;;;14.15;9.20;;;;;;;-146.25;100.00;52431.06;2181486;27;35155;-66
2024/04/23 03:23:22;;;;;;;13.93;9.07;;;;;;;-146.25;100.00;52424.97;2181912;27;32646;-66
2024/04/23 03:24:25;;;;;;;14.02;9.23;;;;;;;-146.25;100.00;52451.31;2182109;27;31668;-66
2024/04/23 03:25:27;;;;;;;14.50;9.20;;;;;;;-146.25;100.00;52437.13;2181550;27;33333;-66
2024/04/23 03:26:29;;;;;;;15.07;9.45;;;;;;;-146.25;100.00;52431.06;2182266;27;32838;-67
2024/04/23 03:27:31;;;;;;;14.82;9.88;;;;;;;-146.25;100.00;52457.41;2181728;27;36794;-66
2024/04/23 03:28:33;;;;;;;14.88;9.25;;;;;;;-146.25;100.00;52449.31;2182868;27;20014;-66
2024/04/23 03:29:35;;;;;;;14.57;9.45;;;;;;;-146.25;100.00;52429.03;2181625;27;35705;-66
2024/04/23 03:30:36;;;;;;;13.25;8.90;;;;;;;-146.25;100.00;52402.66;2182324;27;32490;-66
2024/04/23 03:31:38;;;;;;;13.82;8.85;;;;;;;-146.25;100.00;52441.19;2181902;27;35787;-65
2024/04/23 03:32:40;;;;;;;15.05;10.15;;;;;;;-146.25;100.00;52447.28;2181438;27;34423;-66
2024/04/23 03:33:42;;;;;;;13.93;8.98;;;;;;;-146.25;100.00;52431.06;2181781;27;20014;-68
2024/04/23 03:34:44;;;;;;;15.20;10.20;;;;;;;-146.25;100.00;52429.03;2182015;27;35002;-65
2024/04/23 03:35:46;;;;;;;14.48;9.52;;;;;;;-146.25;100.00;52463.50;2181009;27;30976;-65
2024/04/23 03:36:48;;;;;;;16.67;9.80;;;;;;;-146.25;100.00;52457.41;2181359;27;32023;-66
2024/04/23 03:37:52;;;;;;;14.68;9.40;;;;;;;-146.25;100.00;52437.13;2181480;27;37547;-65
2024/04/23 03:38:54;;;;;;;14.18;9.50;;;;;;;-146.25;100.00;52424.97;2182930;27;21109;-66
2024/04/23 03:39:56;;;;;;;15.20;8.40;;;;;;;-146.25;100.00;52435.09;2181678;27;32942;-66
2024/04/23 03:40:58;;;;;;;12.63;9.02;;;;;;;-146.25;100.00;52416.84;2180972;27;36722;-66
2024/04/23 03:42:00;;;;;;;11.98;8.18;;;;;;;-146.25;100.00;52404.69;2181007;27;35190;-66
2024/04/23 03:43:02;;;;;;;13.15;8.57;;;;;;;-146.25;100.00;52416.84;2180102;27;34965;-66
2024/04/23 03:44:04;;;;;;;13.80;8.70;;;;;;;-146.25;100.00;52467.56;2180347;27;30939;-65
2024/04/23 03:45:06;;;;;;;14.07;8.52;;;;;;;-146.25;100.00;52431.06;2181243;27;29974;-66
2024/04/23 03:46:08;;;;;;;12.07;8.45;;;;;;;-146.25;100.00;52455.38;2180761;27;36623;-66
2024/04/23 03:47:12;;;;;;;12.20;8.05;;;;;;;-146.25;100.00;52457.41;2181894;27;31736;-64
2024/04/23 03:48:14;;;;;;;14.15;8.82;;;;;;;-146.25;100.00;52408.75;2181266;27;34469;-65
2024/04/23 03:49:16;;;;;;;16.52;10.00;;;;;;;-146.25;100.00;52457.41;2181645;27;35667;-65
2024/04/23 03:50:18;;;;;;;14.90;9.13;;;;;;;-146.25;100.00;52418.88;2181659;27;32546;-68
2024/04/23 03:51:20;;;;;;;13.60;8.55;;;;;;;-146.25;100.00;52429.03;2181931;27;37754;-65
2024/04/23 03:52:26;;;;;;;14.88;8.88;;;;;;;-146.25;100.00;52431.06;2181424;27;20113;-65
2024/04/23 03:53:28;;;;;;;14.00;9.02;;;;;;;-146.25;100.00;52463.50;2181246;27;35215;-66
2024/04/23 03:54:32;;;;;;;14.38;9.05;;;;;;;-146.25;100.00;52447.28;2181428;27;20926;-65
2024/04/23 03:55:36;;;;;;;15.52;9.90;;;;;;;-146.25;100.00;52447.28;2167406;27;36495;-65
2024/04/23 03:56:38;;;;;;;14.68;9.35;;;;;;;-146.25;100.00;52473.63;2167476;27;33044;-66
2024/04/23 03:57:40;;;;;;;12.43;8.73;;;;;;;-146.25;100.00;52435.09;2168076;27;32439;-65
2024/04/23 03:58:42;;;;;;;12.73;9.05;;;;;;;-146.25;100.00;52443.22;2180620;27;37922;-65
2024/04/23 03:59:46;;;;;;;14.68;9.07;;;;;;;-146.25;100.00;52489.84;2182619;27;20010;-66
2024/04/23 04:00:48;;;;;;;15.27;8.98;;;;;;;-146.25;100.00;52463.50;2181838;27;26342;-65
2024/04/23 04:06:03;;;;;;;13.55;8.73;;;;;;;-146.25;100.00;52481.75;2182017;27;34141;-66
2024/04/23 04:06:04;;;;;;;10.95;7.75;;;;;;;-146.25;100.00;52422.94;2182406;27;27619;-65
2024/04/23 04:07:06;;;;;;;15.20;9.57;;;;;;;-146.25;100.00;52439.16;2182040;27;32691;-66
2024/04/23 04:08:08;;;;;;;15.57;9.70;;;;;;;-146.25;100.00;52451.31;2182600;27;20022;-66
2024/04/23 04:09:12;;;;;;;15.63;10.48;;;;;;;-146.25;100.00;52455.38;2181494;27;35142;-65
2024/04/23 04:10:14;;;;;;;15.07;8.90;;;;;;;-146.25;100.00;52449.31;2182560;27;33049;-66
2024/04/23 04:11:16;;;;;;;14.50;9.35;;;;;;;-146.25;100.00;52453.34;2181300;27;36591;-65
2024/04/23 04:12:20;;;;;;;14.52;9.32;;;;;;;-146.25;100.00;52479.72;2182226;27;30484;-66
2024/04/23 04:13:22;;;;;;;16.00;9.88;;;;;;;-146.25;100.00;52412.81;2183332;27;20006;-65
2024/04/23 04:14:24;;;;;;;15.63;9.52;;;;;;;-146.25;100.00;52451.31;2183200;27;33565;-65
2024/04/23 04:15:26;;;;;;;16.20;10.35;;;;;;;-146.25;100.00;52485.81;2182765;27;33644;-65
2024/04/23 04:16:29;;;;;;;17.35;11.35;;;;;;;-146.25;100.00;52455.38;2183640;27;20032;-66
2024/04/23 04:17:33;;;;;;;16.30;10.43;;;;;;;-146.25;100.00;52475.66;2182818;27;34568;-65
2024/04/23 04:18:36;;;;;;;18.45;10.70;;;;;;;-146.25;100.00;52465.53;2183068;27;31175;-66
2024/04/23 04:19:40;;;;;;;16.45;10.23;;;;;;;-146.25;100.00;52477.69;2181842;27;33329;-66
2024/04/23 04:20:42;;;;;;;17.25;11.35;;;;;;;-146.25;100.00;52437.13;2182135;27;36845;-66
2024/04/23 04:21:44;;;;;;;18.35;10.50;;;;;;;-146.25;100.00;52457.41;2182575;27;33043;-66
2024/04/23 04:22:46;;;;;;;21.40;10.50;;;;;;;-146.25;100.00;52453.34;2182263;27;25594;-66
2024/04/23 04:23:48;;;;;;;22.33;11.77;;;;;;;-146.25;100.00;52483.78;2181830;27;33479;-66
2024/04/23 04:24:50;;;;;;;16.95;10.43;;;;;;;-146.25;100.00;52445.25;2182797;27;34606;-65
2024/04/23 04:25:52;;;;;;;17.90;11.07;;;;;;;-146.25;100.00;52465.53;2182331;27;32865;-66
2024/04/23 04:26:56;;;;;;;18.00;10.48;;;;;;;-146.25;100.00;52473.63;2183030;27;31081;-66
2024/04/23 04:27:58;;;;;;;20.95;11.32;;;;;;;-146.25;100.00;52443.22;2183429;27;20993;-66
2024/04/23 04:29:03;;;;;;;17.33;10.45;;;;;;;-146.25;100.00;52451.31;2183459;27;33303;-66
2024/04/23 04:30:06;;;;;;;20.77;11.90;;;;;;;-146.25;100.00;52429.03;2182602;27;36404;-65
2024/04/23 04:31:08;;;;;;;21.63;11.60;;;;;;;-146.25;100.00;52457.41;2182972;27;33982;-66
2024/04/23 04:32:10;;;;;;;18.60;10.93;;;;;;;-146.25;100.00;52475.66;2181964;27;29774;-66
2024/04/23 04:33:12;;;;;;;16.25;10.32;;;;;;;-146.25;100.00;52457.41;2182213;27;33929;-66
2024/04/23 04:34:14;;;;;;;20.77;12.07;;;;;;;-146.25;100.00;52461.47;2181927;27;33002;-66
2024/04/23 04:35:19;;;;;;;22.52;13.00;;;;;;;-146.25;100.00;52416.84;2183160;27;20090;-66
2024/04/23 04:36:21;;;;;;;19.45;11.68;;;;;;;-146.25;100.00;52467.56;2181831;27;34783;-66
2024/04/23 04:37:23;;;;;;;21.48;12.93;;;;;;;-146.25;100.00;52479.72;2182891;27;20919;-66
2024/04/23 04:38:27;;;;;;;19.10;12.43;;;;;;;-146.25;100.00;52427.00;2182904;27;32095;-66
2024/04/23 04:39:29;;;;;;;18.25;11.40;;;;;;;-146.25;100.00;52441.19;2182029;27;33940;-66
2024/04/23 04:40:31;;;;;;;18.05;11.85;;;;;;;-146.25;100.00;52420.91;2182919;27;20015;-65
2024/04/23 04:41:33;;;;;;;16.70;10.55;;;;;;;-146.25;100.00;52443.22;2196755;27;21157;-65
2024/04/23 04:42:35;;;;;;;17.35;10.77;;;;;;;-146.25;100.00;52453.34;2182633;27;35653;-66
2024/04/23 04:43:37;;;;;;;18.45;11.60;;;;;;;-146.25;100.00;52441.19;2183067;27;33419;-65
2024/04/23 04:44:39;;;;;;;14.68;9.48;;;;;;;-146.25;100.00;52420.91;2183404;27;20015;-65
2024/04/23 04:45:43;;;;;;;13.73;9.18;;;;;;;-146.25;100.00;52447.28;2182792;27;35467;-65